createdAt,value
2019-02-21T00:00:56.179Z,9.98
2019-02-21T00:02:11.759Z,9.97
2019-02-21T00:03:17.168Z,9.95
2019-02-21T00:04:22.090Z,9.93
2019-02-21T00:05:27.028Z,9.93
2019-02-21T00:06:31.992Z,9.91
2019-02-21T00:07:36.906Z,9.91
2019-02-21T00:08:41.913Z,9.91
2019-02-21T00:09:46.896Z,9.90
2019-02-21T00:10:51.888Z,9.91
2019-02-21T00:11:57.163Z,9.91
2019-02-21T00:13:03.462Z,9.90
2019-02-21T00:14:08.442Z,9.90
2019-02-21T00:15:13.550Z,9.90
2019-02-21T00:16:18.730Z,9.89
2019-02-21T00:17:23.671Z,9.89
2019-02-21T00:18:28.726Z,9.88
2019-02-21T00:19:33.736Z,9.88
2019-02-21T00:20:39.222Z,9.87
2019-02-21T00:21:44.125Z,9.85
2019-02-21T00:22:49.119Z,9.86
2019-02-21T00:23:54.210Z,9.85
2019-02-21T00:24:59.131Z,9.86
2019-02-21T00:26:04.181Z,9.85
2019-02-21T00:27:09.952Z,9.85
2019-02-21T00:28:15.044Z,9.83
2019-02-21T00:29:19.940Z,9.84
2019-02-21T00:30:34.901Z,9.82
2019-02-21T00:31:31.574Z,9.77
2019-02-21T00:32:36.580Z,9.81
2019-02-21T00:33:41.530Z,9.81
2019-02-21T00:34:46.424Z,9.80
2019-02-21T00:35:51.925Z,9.78
2019-02-21T00:36:56.894Z,9.76
2019-02-21T00:38:01.843Z,9.74
2019-02-21T00:39:07.260Z,9.72
2019-02-21T00:40:12.595Z,9.71
2019-02-21T00:41:17.596Z,9.69
2019-02-21T00:42:22.511Z,9.68
2019-02-21T00:43:27.411Z,9.69
2019-02-21T00:44:32.417Z,9.67
2019-02-21T00:45:37.329Z,9.67
2019-02-21T00:46:42.304Z,9.66
2019-02-21T00:47:47.230Z,9.64
2019-02-21T00:48:52.125Z,9.63
2019-02-21T00:49:57.730Z,9.63
2019-02-21T00:51:02.946Z,9.62
2019-02-21T00:52:07.871Z,9.61
2019-02-21T00:53:13.209Z,9.60
2019-02-21T00:54:18.595Z,9.60
2019-02-21T00:55:23.590Z,9.59
2019-02-21T00:56:28.599Z,9.59
2019-02-21T00:57:34.111Z,9.59
2019-02-21T00:58:39.559Z,9.58
2019-02-21T00:59:44.560Z,9.58
2019-02-21T01:00:49.702Z,9.58
2019-02-21T01:01:54.626Z,9.59
2019-02-21T01:03:00.111Z,9.57
2019-02-21T01:04:05.084Z,9.57
2019-02-21T01:05:10.162Z,9.58
2019-02-21T01:06:15.152Z,9.57
2019-02-21T01:07:20.082Z,9.57
2019-02-21T01:08:25.078Z,9.57
2019-02-21T01:09:30.096Z,9.56
2019-02-21T01:10:35.362Z,9.56
2019-02-21T01:11:40.896Z,9.56
2019-02-21T01:12:45.999Z,9.54
2019-02-21T01:13:50.925Z,9.53
2019-02-21T01:14:55.913Z,9.52
2019-02-21T01:16:00.868Z,9.51
2019-02-21T01:17:05.892Z,9.53
2019-02-21T01:18:10.931Z,9.52
2019-02-21T01:19:15.934Z,9.46
2019-02-21T01:20:20.934Z,9.50
2019-02-21T01:21:26.094Z,9.50
2019-02-21T01:22:31.026Z,9.49
2019-02-21T01:23:36.023Z,9.48
2019-02-21T01:24:41.134Z,9.48
2019-02-21T01:25:46.123Z,9.46
2019-02-21T01:26:51.027Z,9.43
2019-02-21T01:27:56.065Z,9.41
2019-02-21T01:29:01.135Z,9.41
2019-02-21T01:30:06.570Z,9.40
2019-02-21T01:31:11.521Z,9.39
2019-02-21T01:32:16.643Z,9.38
2019-02-21T01:33:21.690Z,9.38
2019-02-21T01:34:27.119Z,9.36
2019-02-21T01:35:32.174Z,9.34
2019-02-21T01:36:37.157Z,9.34
2019-02-21T01:37:42.189Z,9.32
2019-02-21T01:38:47.399Z,9.26
2019-02-21T01:41:57.762Z,9.31
2019-02-21T01:43:02.712Z,9.28
2019-02-21T01:44:07.769Z,9.27
2019-02-21T01:45:12.976Z,9.25
2019-02-21T01:46:18.720Z,9.25
2019-02-21T01:47:23.796Z,9.24
2019-02-21T01:48:29.629Z,9.24
2019-02-21T01:49:35.042Z,9.23
2019-02-21T01:50:40.086Z,9.23
2019-02-21T01:51:45.163Z,9.22
2019-02-21T01:52:50.766Z,9.21
2019-02-21T01:53:55.789Z,9.20
2019-02-21T01:55:01.261Z,9.20
2019-02-21T01:56:06.662Z,9.20
2019-02-21T01:57:11.800Z,9.19
2019-02-21T01:58:17.251Z,9.19
2019-02-21T01:59:22.381Z,9.16
2019-02-21T02:00:28.164Z,9.16
2019-02-21T02:01:33.829Z,9.16
2019-02-21T02:02:39.206Z,9.16
2019-02-21T02:03:44.745Z,9.14
2019-02-21T02:04:49.797Z,9.14
2019-02-21T02:05:54.789Z,9.13
2019-02-21T02:06:59.869Z,9.13
2019-02-21T02:08:04.955Z,9.11
2019-02-21T02:09:12.802Z,9.09
2019-02-21T02:10:18.167Z,9.10
2019-02-21T02:11:23.186Z,9.09
2019-02-21T02:12:28.291Z,9.09
2019-02-21T02:13:33.320Z,9.09
2019-02-21T02:14:38.318Z,9.08
2019-02-21T02:15:43.361Z,9.07
2019-02-21T02:16:48.409Z,9.07
2019-02-21T02:17:53.383Z,9.07
2019-02-21T02:18:58.713Z,9.05
2019-02-21T02:20:04.245Z,9.05
2019-02-21T02:21:09.368Z,9.05
2019-02-21T02:22:14.480Z,9.05
2019-02-21T02:23:19.603Z,9.03
2019-02-21T02:24:26.873Z,9.03
2019-02-21T02:25:32.147Z,9.01
2019-02-21T02:26:37.350Z,9.02
2019-02-21T02:27:42.741Z,9.01
2019-02-21T02:28:47.790Z,9.01
2019-02-21T02:29:53.153Z,9.01
2019-02-21T02:30:58.423Z,9.01
2019-02-21T02:32:03.519Z,9.03
2019-02-21T02:33:08.740Z,9.04
2019-02-21T02:34:14.107Z,9.04
2019-02-21T02:35:19.246Z,9.05
2019-02-21T02:36:24.574Z,9.04
2019-02-21T02:37:29.596Z,9.04
2019-02-21T02:38:34.809Z,9.04
2019-02-21T02:39:40.043Z,9.06
2019-02-21T02:40:44.977Z,9.07
2019-02-21T02:41:50.295Z,9.07
2019-02-21T02:42:55.651Z,9.09
2019-02-21T02:44:00.696Z,9.11
2019-02-21T02:45:06.501Z,9.10
2019-02-21T02:46:11.546Z,9.09
2019-02-21T02:47:16.562Z,9.10
2019-02-21T02:48:21.566Z,9.09
2019-02-21T02:49:26.566Z,9.10
2019-02-21T02:50:31.695Z,9.11
2019-02-21T02:51:36.799Z,9.10
2019-02-21T02:52:41.923Z,9.11
2019-02-21T02:53:47.143Z,9.12
2019-02-21T02:54:52.280Z,9.13
2019-02-21T02:55:57.261Z,9.14
2019-02-21T02:57:02.371Z,9.14
2019-02-21T02:58:08.340Z,9.14
2019-02-21T02:59:13.304Z,9.14
2019-02-21T03:00:18.799Z,9.13
2019-02-21T03:01:34.467Z,9.12
2019-02-21T03:02:31.019Z,9.13
2019-02-21T03:03:36.402Z,9.15
2019-02-21T03:04:41.616Z,9.16
2019-02-21T03:05:46.963Z,9.17
2019-02-21T03:06:51.936Z,9.15
2019-02-21T03:07:56.895Z,9.15
2019-02-21T03:09:02.532Z,9.15
2019-02-21T03:10:09.139Z,9.17
2019-02-21T03:11:14.274Z,9.21
2019-02-21T03:12:19.349Z,9.24
2019-02-21T03:13:24.609Z,9.26
2019-02-21T03:14:29.991Z,9.29
2019-02-21T03:15:35.317Z,9.33
2019-02-21T03:16:40.385Z,9.36
2019-02-21T03:17:45.496Z,9.39
2019-02-21T03:18:50.485Z,9.42
2019-02-21T03:19:56.071Z,9.43
2019-02-21T03:21:01.129Z,9.46
2019-02-21T03:22:06.216Z,9.47
2019-02-21T03:23:11.538Z,9.50
2019-02-21T03:24:16.853Z,9.50
2019-02-21T03:25:22.027Z,9.49
2019-02-21T03:26:27.077Z,9.51
2019-02-21T03:27:32.475Z,9.50
2019-02-21T03:28:37.506Z,9.48
2019-02-21T03:29:43.175Z,9.47
2019-02-21T03:30:48.497Z,9.46
2019-02-21T03:31:55.847Z,9.46
2019-02-21T03:33:00.691Z,9.46
2019-02-21T03:34:05.863Z,9.46
2019-02-21T03:35:11.024Z,9.47
2019-02-21T03:36:16.076Z,9.47
2019-02-21T03:37:21.188Z,9.48
2019-02-21T03:38:26.783Z,9.47
2019-02-21T03:39:33.204Z,9.47
2019-02-21T03:40:38.275Z,9.47
2019-02-21T03:41:43.718Z,9.47
2019-02-21T03:42:48.606Z,9.46
2019-02-21T03:43:53.643Z,9.47
2019-02-21T03:44:58.711Z,9.48
2019-02-21T03:46:03.737Z,9.49
2019-02-21T03:47:08.860Z,9.50
2019-02-21T03:48:14.453Z,9.51
2019-02-21T03:49:19.589Z,9.52
2019-02-21T03:50:25.057Z,9.54
2019-02-21T03:51:30.431Z,9.55
2019-02-21T03:52:35.860Z,9.57
2019-02-21T03:53:41.191Z,9.59
2019-02-21T03:54:46.396Z,9.61
2019-02-21T03:55:51.817Z,9.63
2019-02-21T03:56:56.821Z,9.64
2019-02-21T03:58:02.000Z,9.65
2019-02-21T03:59:07.453Z,9.67
2019-02-21T04:00:12.644Z,9.67
2019-02-21T04:01:17.743Z,9.68
2019-02-21T04:02:22.859Z,9.68
2019-02-21T04:03:28.633Z,9.70
2019-02-21T04:04:33.832Z,9.71
2019-02-21T04:05:39.279Z,9.71
2019-02-21T04:06:44.712Z,9.71
2019-02-21T04:07:49.878Z,9.71
2019-02-21T04:08:54.844Z,9.72
2019-02-21T04:10:00.514Z,9.72
2019-02-21T04:11:05.696Z,9.72
2019-02-21T04:12:10.961Z,9.73
2019-02-21T04:13:16.039Z,9.74
2019-02-21T04:14:21.302Z,9.75
2019-02-21T04:15:26.259Z,9.73
2019-02-21T04:16:31.360Z,9.73
2019-02-21T04:17:36.417Z,9.71
2019-02-21T04:18:41.858Z,9.70
2019-02-21T04:19:46.970Z,9.70
2019-02-21T04:20:51.945Z,9.68
2019-02-21T04:21:57.103Z,9.67
2019-02-21T04:23:02.384Z,9.66
2019-02-21T04:24:07.496Z,9.65
2019-02-21T04:25:12.576Z,9.63
2019-02-21T04:26:17.547Z,9.61
2019-02-21T04:27:22.490Z,9.60
2019-02-21T04:28:27.893Z,9.57
2019-02-21T04:29:34.044Z,9.55
2019-02-21T04:30:39.645Z,9.51
2019-02-21T04:31:44.764Z,9.49
2019-02-21T04:32:50.060Z,9.46
2019-02-21T04:33:55.065Z,9.43
2019-02-21T04:35:00.482Z,9.41
2019-02-21T04:36:05.518Z,9.38
2019-02-21T04:37:10.807Z,9.37
2019-02-21T04:38:15.839Z,9.35
2019-02-21T04:39:20.901Z,9.33
2019-02-21T04:40:26.354Z,9.30
2019-02-21T04:41:31.433Z,9.28
2019-02-21T04:42:36.784Z,9.28
2019-02-21T04:43:41.813Z,9.27
2019-02-21T04:44:47.031Z,9.27
2019-02-21T04:45:52.405Z,9.26
2019-02-21T04:46:57.448Z,9.24
2019-02-21T04:48:02.698Z,9.22
2019-02-21T04:49:07.750Z,9.23
2019-02-21T04:50:12.060Z,9.23
2019-02-21T04:51:17.074Z,9.23
2019-02-21T04:52:22.273Z,9.24
2019-02-21T04:53:27.267Z,9.23
2019-02-21T04:54:32.584Z,9.23
2019-02-21T04:55:37.651Z,9.22
2019-02-21T04:56:42.608Z,9.20
2019-02-21T04:57:47.736Z,9.22
2019-02-21T04:58:52.992Z,9.20
2019-02-21T04:59:58.084Z,9.20
2019-02-21T05:01:03.056Z,9.19
2019-02-21T05:02:08.863Z,9.18
2019-02-21T05:03:14.257Z,9.19
2019-02-21T05:04:19.275Z,9.18
2019-02-21T05:05:24.561Z,9.18
2019-02-21T05:06:29.742Z,9.16
2019-02-21T05:07:34.909Z,9.15
2019-02-21T05:08:39.894Z,9.16
2019-02-21T05:09:57.069Z,9.14
2019-02-21T05:10:51.891Z,9.14
2019-02-21T05:11:57.512Z,9.14
2019-02-21T05:13:02.910Z,9.15
2019-02-21T05:14:07.981Z,9.15
2019-02-21T05:15:14.198Z,9.14
2019-02-21T05:16:19.825Z,9.13
2019-02-21T05:17:24.913Z,9.11
2019-02-21T05:18:30.329Z,9.12
2019-02-21T05:19:35.383Z,9.10
2019-02-21T05:20:40.432Z,9.09
2019-02-21T05:21:46.393Z,9.08
2019-02-21T05:22:51.423Z,9.08
2019-02-21T05:23:56.501Z,9.07
2019-02-21T05:25:01.807Z,9.07
2019-02-21T05:26:08.151Z,9.08
2019-02-21T05:27:17.212Z,9.06
2019-02-21T05:28:28.650Z,9.05
2019-02-21T05:29:34.431Z,9.03
2019-02-21T05:30:39.810Z,9.02
2019-02-21T05:31:52.064Z,9.02
2019-02-21T05:33:15.247Z,9.01
2019-02-21T05:34:48.263Z,9.01
2019-02-21T05:36:15.240Z,8.99
2019-02-21T05:37:48.896Z,8.94
2019-02-21T05:39:19.268Z,8.90
2019-02-21T05:40:47.367Z,8.89
2019-02-21T05:41:59.654Z,8.86
2019-02-21T05:43:21.583Z,8.84
2019-02-21T05:44:34.807Z,8.84
2019-02-21T05:45:57.995Z,8.83
2019-02-21T05:47:22.248Z,8.84
2019-02-21T05:48:33.215Z,8.83
2019-02-21T05:49:45.886Z,8.82
2019-02-21T05:51:13.918Z,8.80
2019-02-21T05:52:33.009Z,8.80
2019-02-21T05:54:09.094Z,8.78
2019-02-21T05:55:19.875Z,8.78
2019-02-21T05:57:02.350Z,8.77
2019-02-21T05:58:24.964Z,8.78
2019-02-21T05:59:47.221Z,8.75
2019-02-21T06:01:01.442Z,8.75
2019-02-21T06:02:15.760Z,8.75
2019-02-21T06:03:39.777Z,8.73
2019-02-21T06:04:54.623Z,8.73
2019-02-21T06:06:18.651Z,8.73
2019-02-21T06:07:48.683Z,8.73
2019-02-21T06:09:00.250Z,8.72
2019-02-21T06:10:24.439Z,8.71
2019-02-21T06:11:35.776Z,8.69
2019-02-21T06:12:53.928Z,8.70
2019-02-21T06:14:17.008Z,8.70
2019-02-21T06:15:34.888Z,8.70
2019-02-21T06:17:14.695Z,8.71
2019-02-21T06:18:29.257Z,8.68
2019-02-21T06:19:49.940Z,8.66
2019-02-21T06:21:02.844Z,8.66
2019-02-21T06:22:36.345Z,8.65
2019-02-21T06:23:59.290Z,8.64
2019-02-21T06:25:23.429Z,8.64
2019-02-21T06:26:33.853Z,8.63
2019-02-21T06:28:00.808Z,8.63
2019-02-21T06:29:09.760Z,8.62
2019-02-21T06:30:30.035Z,8.60
2019-02-21T06:31:35.274Z,8.60
2019-02-21T06:32:40.895Z,8.59
2019-02-21T06:33:46.202Z,8.59
2019-02-21T06:34:52.532Z,8.60
2019-02-21T06:35:57.937Z,8.60
2019-02-21T06:37:02.945Z,8.61
2019-02-21T06:38:08.371Z,8.62
2019-02-21T06:39:13.732Z,8.63
2019-02-21T06:40:19.245Z,8.64
2019-02-21T06:41:24.597Z,8.65
2019-02-21T06:42:30.018Z,8.65
2019-02-21T06:43:35.391Z,8.64
2019-02-21T06:44:40.429Z,8.64
2019-02-21T06:45:45.655Z,8.65
2019-02-21T06:46:50.713Z,8.66
2019-02-21T06:47:55.875Z,8.67
2019-02-21T06:49:01.013Z,8.67
2019-02-21T06:50:06.415Z,8.68
2019-02-21T06:51:11.645Z,8.69
2019-02-21T06:52:17.428Z,8.68
2019-02-21T06:53:22.616Z,8.70
2019-02-21T06:54:28.407Z,8.70
2019-02-21T06:55:34.071Z,8.70
2019-02-21T06:56:39.703Z,8.72
2019-02-21T06:57:44.966Z,8.72
2019-02-21T06:58:50.237Z,8.73
2019-02-21T06:59:55.445Z,8.73
2019-02-21T07:01:01.003Z,8.73
2019-02-21T07:02:06.137Z,8.74
2019-02-21T07:03:15.897Z,8.74
2019-02-21T07:04:18.445Z,8.74
2019-02-21T07:05:23.804Z,8.75
2019-02-21T07:06:32.076Z,8.76
2019-02-21T07:07:35.695Z,8.75
2019-02-21T07:08:40.740Z,8.76
2019-02-21T07:09:45.779Z,8.77
2019-02-21T07:10:50.986Z,8.79
2019-02-21T07:11:56.020Z,8.79
2019-02-21T07:13:01.384Z,8.80
2019-02-21T07:14:06.415Z,8.81
2019-02-21T07:15:11.952Z,8.82
2019-02-21T07:16:17.629Z,8.82
2019-02-21T07:17:22.879Z,8.84
2019-02-21T07:18:28.880Z,8.86
2019-02-21T07:19:34.206Z,8.86
2019-02-21T07:20:39.827Z,8.88
2019-02-21T07:21:45.139Z,8.88
2019-02-21T07:22:50.313Z,8.89
2019-02-21T07:23:55.619Z,8.89
2019-02-21T07:25:05.817Z,8.90
2019-02-21T07:26:13.809Z,8.93
2019-02-21T07:27:19.032Z,8.94
2019-02-21T07:28:23.998Z,8.94
2019-02-21T07:29:29.388Z,8.96
2019-02-21T07:30:34.833Z,8.97
2019-02-21T07:31:39.778Z,9.00
2019-02-21T07:32:44.863Z,9.01
2019-02-21T07:33:50.352Z,9.02
2019-02-21T07:34:55.644Z,9.03
2019-02-21T07:36:01.354Z,9.05
2019-02-21T07:37:17.783Z,9.07
2019-02-21T07:38:13.292Z,9.10
2019-02-21T07:39:20.697Z,9.14
2019-02-21T07:40:25.158Z,9.16
2019-02-21T07:41:30.170Z,9.18
2019-02-21T07:42:35.479Z,9.19
2019-02-21T07:43:40.603Z,9.20
2019-02-21T07:44:45.812Z,9.20
2019-02-21T07:45:50.923Z,9.20
2019-02-21T07:46:55.912Z,9.20
2019-02-21T07:48:01.258Z,9.21
2019-02-21T07:49:06.264Z,9.22
2019-02-21T07:50:11.563Z,9.23
2019-02-21T07:51:16.539Z,9.24
2019-02-21T07:52:21.997Z,9.25
2019-02-21T07:53:27.537Z,9.25
2019-02-21T07:54:32.996Z,9.24
2019-02-21T07:55:38.192Z,9.24
2019-02-21T07:56:43.266Z,9.25
2019-02-21T07:57:48.274Z,9.25
2019-02-21T07:58:53.764Z,9.25
2019-02-21T07:59:58.711Z,9.24
2019-02-21T08:01:04.104Z,9.25
2019-02-21T08:02:09.149Z,9.25
2019-02-21T08:03:14.214Z,9.26
2019-02-21T08:04:19.392Z,9.26
2019-02-21T08:05:24.471Z,9.26
2019-02-21T08:06:29.597Z,9.26
2019-02-21T08:07:35.271Z,9.28
2019-02-21T08:08:40.622Z,9.28
2019-02-21T08:09:45.750Z,9.29
2019-02-21T08:10:51.259Z,9.30
2019-02-21T08:11:56.323Z,9.31
2019-02-21T08:13:01.375Z,9.33
2019-02-21T08:14:06.582Z,9.35
2019-02-21T08:15:12.186Z,9.36
2019-02-21T08:16:17.334Z,9.38
2019-02-21T08:17:22.531Z,9.40
2019-02-21T08:18:27.545Z,9.43
2019-02-21T08:19:32.679Z,9.45
2019-02-21T08:20:40.790Z,9.50
2019-02-21T08:21:44.901Z,9.53
2019-02-21T08:22:52.233Z,9.58
2019-02-21T08:23:59.211Z,9.62
2019-02-21T08:25:05.009Z,9.66
2019-02-21T08:26:10.019Z,9.70
2019-02-21T08:27:15.107Z,9.75
2019-02-21T08:28:20.415Z,9.79
2019-02-21T08:29:25.846Z,9.84
2019-02-21T08:30:32.942Z,9.88
2019-02-21T08:31:38.244Z,9.93
2019-02-21T08:33:17.833Z,9.99
2019-02-21T08:34:30.662Z,10.01
2019-02-21T08:35:35.963Z,10.06
2019-02-21T08:36:40.954Z,10.11
2019-02-21T08:37:45.923Z,10.15
2019-02-21T08:38:50.972Z,10.19
2019-02-21T08:39:56.282Z,10.22
2019-02-21T08:41:01.264Z,10.24
2019-02-21T08:42:06.555Z,10.27
2019-02-21T08:43:12.062Z,10.32
2019-02-21T08:44:17.388Z,10.35
2019-02-21T08:45:22.459Z,10.37
2019-02-21T08:46:27.566Z,10.40
2019-02-21T08:47:32.552Z,10.43
2019-02-21T08:48:40.298Z,10.45
2019-02-21T08:49:44.630Z,10.48
2019-02-21T08:50:49.789Z,10.51
2019-02-21T08:51:55.186Z,10.52
2019-02-21T08:53:01.120Z,10.55
2019-02-21T08:55:00.515Z,10.55
2019-02-21T08:56:04.690Z,10.58
2019-02-21T08:57:09.738Z,10.55
2019-02-21T08:58:14.851Z,10.55
2019-02-21T08:59:19.788Z,10.57
2019-02-21T09:00:24.739Z,10.52
2019-02-21T09:01:29.822Z,10.58
2019-02-21T09:02:36.030Z,10.59
2019-02-21T09:03:41.303Z,10.61
2019-02-21T09:04:46.637Z,10.62
2019-02-21T09:05:51.972Z,10.63
2019-02-21T09:06:57.317Z,10.64
2019-02-21T09:08:02.733Z,10.59
2019-02-21T09:09:07.873Z,10.64
2019-02-21T09:10:13.406Z,10.63
2019-02-21T09:11:19.775Z,10.63
2019-02-21T09:12:25.350Z,10.63
2019-02-21T09:13:30.636Z,10.65
2019-02-21T09:14:35.614Z,10.64
2019-02-21T09:15:41.269Z,10.64
2019-02-21T09:16:46.342Z,10.70
2019-02-21T09:17:53.993Z,10.72
2019-02-21T09:18:58.827Z,10.72
2019-02-21T09:20:03.900Z,10.71
2019-02-21T09:21:08.942Z,10.76
2019-02-21T09:22:13.965Z,10.78
2019-02-21T09:23:19.185Z,10.81
2019-02-21T09:24:37.464Z,10.86
2019-02-21T09:25:30.997Z,10.89
2019-02-21T09:26:36.112Z,10.96
2019-02-21T09:27:41.104Z,11.02
2019-02-21T09:28:46.088Z,11.03
2019-02-21T09:29:51.112Z,11.13
2019-02-21T09:30:56.634Z,11.18
2019-02-21T09:32:02.283Z,11.22
2019-02-21T09:33:16.960Z,11.28
2019-02-21T09:34:21.058Z,11.27
2019-02-21T09:35:20.896Z,11.37
2019-02-21T09:36:25.924Z,11.41
2019-02-21T09:37:31.134Z,11.45
2019-02-21T09:38:36.096Z,11.45
2019-02-21T09:39:41.291Z,11.54
2019-02-21T09:40:46.442Z,11.56
2019-02-21T09:41:51.736Z,11.59
2019-02-21T09:42:57.442Z,11.63
2019-02-21T09:44:02.503Z,11.65
2019-02-21T09:45:14.923Z,11.67
2019-02-21T09:46:20.291Z,11.72
2019-02-21T09:47:25.299Z,11.68
2019-02-21T09:48:30.257Z,11.80
2019-02-21T09:49:35.339Z,11.85
2019-02-21T09:50:40.398Z,11.90
2019-02-21T09:51:45.690Z,11.97
2019-02-21T09:52:50.650Z,12.05
2019-02-21T09:53:56.091Z,12.11
2019-02-21T09:55:01.625Z,12.19
2019-02-21T09:56:06.563Z,12.23
2019-02-21T09:57:13.576Z,12.27
2019-02-21T09:58:18.388Z,12.32
2019-02-21T09:59:23.643Z,12.35
2019-02-21T10:00:29.011Z,12.39
2019-02-21T10:01:33.935Z,12.43
2019-02-21T10:02:38.825Z,12.48
2019-02-21T10:03:44.376Z,12.52
2019-02-21T10:04:49.558Z,12.53
2019-02-21T10:05:54.869Z,12.56
2019-02-21T10:07:00.147Z,12.56
2019-02-21T10:08:05.089Z,12.54
2019-02-21T10:09:10.027Z,12.53
2019-02-21T10:10:16.656Z,12.53
2019-02-21T10:11:21.600Z,12.52
2019-02-21T10:12:26.530Z,12.52
2019-02-21T10:13:31.837Z,12.52
2019-02-21T10:14:36.926Z,12.51
2019-02-21T10:15:42.011Z,12.51
2019-02-21T10:16:49.621Z,12.50
2019-02-21T10:17:54.355Z,12.51
2019-02-21T10:18:59.293Z,12.51
2019-02-21T10:20:05.698Z,12.51
2019-02-21T10:21:10.855Z,12.50
2019-02-21T10:22:15.768Z,12.50
2019-02-21T10:23:20.737Z,12.50
2019-02-21T10:24:25.833Z,12.49
2019-02-21T10:25:31.043Z,12.48
2019-02-21T10:26:35.986Z,12.47
2019-02-21T10:27:40.970Z,12.47
2019-02-21T10:28:46.003Z,12.45
2019-02-21T10:29:50.992Z,12.42
2019-02-21T10:30:56.112Z,12.42
2019-02-21T10:32:01.676Z,12.41
2019-02-21T10:33:07.102Z,12.40
2019-02-21T10:34:12.200Z,12.37
2019-02-21T10:35:17.146Z,12.35
2019-02-21T10:36:22.059Z,12.36
2019-02-21T10:37:27.358Z,12.35
2019-02-21T10:38:32.687Z,12.36
2019-02-21T10:39:37.660Z,12.38
2019-02-21T10:40:43.283Z,12.38
2019-02-21T10:41:48.150Z,12.37
2019-02-21T10:42:53.561Z,12.37
2019-02-21T10:43:58.515Z,12.37
2019-02-21T10:45:04.893Z,12.36
2019-02-21T10:46:10.086Z,12.35
2019-02-21T10:47:15.018Z,12.35
2019-02-21T10:48:20.035Z,12.35
2019-02-21T10:49:25.287Z,12.34
2019-02-21T10:50:30.316Z,12.34
2019-02-21T10:51:35.341Z,12.33
2019-02-21T10:52:41.625Z,12.31
2019-02-21T10:53:47.355Z,12.30
2019-02-21T10:54:52.715Z,12.31
2019-02-21T10:55:57.709Z,12.31
2019-02-21T10:57:02.809Z,12.31
2019-02-21T10:58:08.170Z,12.32
2019-02-21T10:59:13.281Z,12.31
2019-02-21T11:00:21.279Z,12.32
2019-02-21T11:01:26.329Z,12.34
2019-02-21T11:02:31.324Z,12.35
2019-02-21T11:03:36.544Z,12.36
2019-02-21T11:04:42.428Z,12.38
2019-02-21T11:05:47.682Z,12.39
2019-02-21T11:06:53.059Z,12.41
2019-02-21T11:07:58.083Z,12.43
2019-02-21T11:09:03.278Z,12.47
2019-02-21T11:10:09.387Z,12.51
2019-02-21T11:11:17.135Z,12.55
2019-02-21T11:12:21.865Z,12.59
2019-02-21T11:13:27.123Z,12.63
2019-02-21T11:14:32.074Z,12.67
2019-02-21T11:15:37.493Z,12.70
2019-02-21T11:16:42.916Z,12.72
2019-02-21T11:17:47.907Z,12.73
2019-02-21T11:18:52.932Z,12.75
2019-02-21T11:19:57.964Z,12.76
2019-02-21T11:21:02.967Z,12.76
2019-02-21T11:22:08.007Z,12.76
2019-02-21T11:23:12.954Z,12.75
2019-02-21T11:24:18.020Z,12.76
2019-02-21T11:25:23.404Z,12.75
2019-02-21T11:26:29.114Z,12.75
2019-02-21T11:27:34.044Z,12.74
2019-02-21T11:28:39.049Z,12.75
2019-02-21T11:29:44.043Z,12.75
2019-02-21T11:30:49.125Z,12.76
2019-02-21T11:31:54.387Z,12.76
2019-02-21T11:32:59.378Z,12.77
2019-02-21T11:34:04.629Z,12.78
2019-02-21T11:35:09.737Z,12.78
2019-02-21T11:36:14.762Z,12.79
2019-02-21T11:37:19.702Z,12.81
2019-02-21T11:38:24.634Z,12.82
2019-02-21T11:39:30.024Z,12.83
2019-02-21T11:40:34.960Z,12.85
2019-02-21T11:41:40.376Z,12.86
2019-02-21T11:42:45.657Z,12.88
2019-02-21T11:43:50.751Z,12.90
2019-02-21T11:44:56.122Z,12.92
2019-02-21T11:46:01.707Z,12.95
2019-02-21T11:47:07.075Z,12.97
2019-02-21T11:48:12.241Z,12.99
2019-02-21T11:49:17.232Z,13.03
2019-02-21T11:50:22.234Z,13.08
2019-02-21T11:51:47.850Z,13.11
2019-02-21T11:52:52.744Z,13.14
2019-02-21T11:53:58.127Z,13.18
2019-02-21T11:55:03.407Z,13.21
2019-02-21T11:56:08.511Z,13.25
2019-02-21T11:57:14.419Z,13.28
2019-02-21T11:58:19.492Z,13.32
2019-02-21T11:59:24.467Z,13.36
2019-02-21T12:00:29.579Z,13.40
2019-02-21T12:01:34.660Z,13.43
2019-02-21T12:02:39.602Z,13.46
2019-02-21T12:03:44.598Z,13.50
2019-02-21T12:04:50.273Z,13.53
2019-02-21T12:05:55.247Z,13.57
2019-02-21T12:07:00.174Z,13.62
2019-02-21T12:08:05.371Z,13.66
2019-02-21T12:09:12.026Z,13.71
2019-02-21T12:10:17.342Z,13.77
2019-02-21T12:11:22.341Z,13.81
2019-02-21T12:12:27.278Z,13.85
2019-02-21T12:13:32.598Z,13.90
2019-02-21T12:14:37.669Z,13.94
2019-02-21T12:15:43.114Z,13.98
2019-02-21T12:16:48.073Z,14.00
2019-02-21T12:17:53.786Z,14.02
2019-02-21T12:18:59.303Z,14.02
2019-02-21T12:20:05.507Z,14.04
2019-02-21T12:21:10.920Z,14.04
2019-02-21T12:22:16.188Z,14.03
2019-02-21T12:23:21.140Z,14.02
2019-02-21T12:24:26.173Z,14.03
2019-02-21T12:25:31.591Z,14.04
2019-02-21T12:26:36.977Z,14.05
2019-02-21T12:27:42.238Z,14.08
2019-02-21T12:28:47.564Z,14.10
2019-02-21T12:29:52.578Z,14.12
2019-02-21T12:30:57.933Z,14.13
2019-02-21T12:32:03.075Z,14.14
2019-02-21T12:33:08.528Z,14.15
2019-02-21T12:34:13.586Z,14.15
2019-02-21T12:35:29.373Z,14.15
2019-02-21T12:36:26.107Z,14.14
2019-02-21T12:37:31.635Z,14.13
2019-02-21T12:38:36.548Z,14.10
2019-02-21T12:39:41.528Z,14.09
2019-02-21T12:40:46.858Z,14.06
2019-02-21T12:41:51.832Z,14.05
2019-02-21T12:42:57.096Z,14.04
2019-02-21T12:44:02.033Z,14.02
2019-02-21T12:45:09.129Z,14.01
2019-02-21T12:46:14.211Z,14.02
2019-02-21T12:47:19.605Z,14.02
2019-02-21T12:48:24.563Z,14.01
2019-02-21T12:49:30.126Z,14.03
2019-02-21T12:50:43.988Z,14.03
2019-02-21T12:51:45.331Z,14.03
2019-02-21T12:52:50.606Z,14.03
2019-02-21T12:53:55.812Z,14.03
2019-02-21T12:55:01.880Z,14.04
2019-02-21T12:56:06.947Z,14.05
2019-02-21T12:57:12.287Z,14.06
2019-02-21T12:58:17.287Z,14.09
2019-02-21T12:59:22.305Z,14.13
2019-02-21T13:00:27.247Z,14.16
2019-02-21T13:01:32.190Z,14.20
2019-02-21T13:02:37.746Z,14.23
2019-02-21T13:03:42.661Z,14.26
2019-02-21T13:04:47.682Z,14.29
2019-02-21T13:05:52.709Z,14.31
2019-02-21T13:06:58.015Z,14.33
2019-02-21T13:08:03.531Z,14.36
2019-02-21T13:09:09.005Z,14.38
2019-02-21T13:10:15.748Z,14.42
2019-02-21T13:11:21.034Z,14.45
2019-02-21T13:12:26.068Z,14.46
2019-02-21T13:13:31.467Z,14.46
2019-02-21T13:14:36.729Z,14.46
2019-02-21T13:15:41.862Z,14.46
2019-02-21T13:16:47.176Z,14.46
2019-02-21T13:17:52.525Z,14.44
2019-02-21T13:18:57.520Z,14.45
2019-02-21T13:20:02.574Z,14.46
2019-02-21T13:21:08.098Z,14.43
2019-02-21T13:22:13.089Z,14.44
2019-02-21T13:23:18.770Z,14.44
2019-02-21T13:24:23.780Z,14.43
2019-02-21T13:25:28.974Z,14.42
2019-02-21T13:26:34.073Z,14.44
2019-02-21T13:27:39.211Z,14.45
2019-02-21T13:28:44.339Z,14.43
2019-02-21T13:29:49.604Z,14.44
2019-02-21T13:30:55.296Z,14.43
2019-02-21T13:32:00.534Z,14.43
2019-02-21T13:33:05.529Z,14.42
2019-02-21T13:34:10.630Z,14.41
2019-02-21T13:35:16.531Z,14.40
2019-02-21T13:36:22.128Z,14.41
2019-02-21T13:37:29.125Z,14.41
2019-02-21T13:38:33.774Z,14.43
2019-02-21T13:39:38.812Z,14.44
2019-02-21T13:40:43.822Z,14.48
2019-02-21T13:41:49.095Z,14.51
2019-02-21T13:42:54.202Z,14.53
2019-02-21T13:43:59.261Z,14.54
2019-02-21T13:45:04.781Z,14.55
2019-02-21T13:46:09.830Z,14.56
2019-02-21T13:47:15.214Z,14.56
2019-02-21T13:48:20.627Z,14.57
2019-02-21T13:49:26.002Z,14.59
2019-02-21T13:50:31.531Z,14.60
2019-02-21T13:51:36.557Z,14.62
2019-02-21T13:52:41.663Z,14.63
2019-02-21T13:53:47.107Z,14.65
2019-02-21T13:54:54.143Z,14.67
2019-02-21T13:55:59.119Z,14.70
2019-02-21T13:57:04.228Z,14.74
2019-02-21T13:58:09.614Z,14.74
2019-02-21T13:59:14.725Z,14.74
2019-02-21T14:00:20.237Z,14.72
2019-02-21T14:01:25.590Z,14.72
2019-02-21T14:02:30.666Z,14.72
2019-02-21T14:03:35.727Z,14.74
2019-02-21T14:04:41.053Z,14.76
2019-02-21T14:05:45.998Z,14.75
2019-02-21T14:06:50.970Z,14.74
2019-02-21T14:07:55.925Z,14.73
2019-02-21T14:09:00.852Z,14.74
2019-02-21T14:10:06.160Z,14.73
2019-02-21T14:11:11.186Z,14.71
2019-02-21T14:12:16.390Z,14.70
2019-02-21T14:13:21.812Z,14.70
2019-02-21T14:14:27.329Z,14.70
2019-02-21T14:15:32.417Z,14.69
2019-02-21T14:16:46.216Z,14.70
2019-02-21T14:17:46.639Z,14.72
2019-02-21T14:18:51.552Z,14.74
2019-02-21T14:19:56.468Z,14.76
2019-02-21T14:21:01.738Z,14.77
2019-02-21T14:22:07.001Z,14.78
2019-02-21T14:23:12.040Z,14.80
2019-02-21T14:24:17.387Z,14.81
2019-02-21T14:25:22.723Z,14.83
2019-02-21T14:26:28.969Z,14.85
2019-02-21T14:27:34.091Z,14.87
2019-02-21T14:28:39.067Z,14.88
2019-02-21T14:29:44.040Z,14.90
2019-02-21T14:30:49.138Z,14.90
2019-02-21T14:31:54.426Z,14.92
2019-02-21T14:32:59.494Z,14.91
2019-02-21T14:34:04.558Z,14.90